Time;durP1;ratioP1;P1;durP2;ratioP2;P2;SDS_P1;SDS_P2;PMS_P1;PMS_P2;Temp;Humidity;BMP_temperature;BMP_pressure;BME280_temperature;BME280_humidity;BME280_pressure;Samples;Min_cycle;Max_cycle;Signal;HPM_P1;HPM_P2
2023/05/12 00:00:06;;;;;;;7.47;5.25;;;;;;;14.00;55.82;101020.56;4898235;29;20063;-88
2023/05/12 00:03:03;;;;;;;;;;;;;;;;;;;;;
2023/05/12 00:10:02;;;;;;;7.97;5.63;;;;;;;13.94;56.39;101015.66;4875839;29;20065;-88
2023/05/12 00:16:19;;;;;;;8.43;5.78;;;;;;;13.93;55.57;101008.44;4932222;28;20438;-88
2023/05/12 00:19:00;;;;;;;9.23;5.80;;;;;;;13.95;55.89;101005.50;4935743;29;20102;-88
2023/05/12 00:22:31;;;;;;;;;;;;;;;;;;;;;
2023/05/12 00:25:21;;;;;;;8.52;5.72;;;;;;;13.90;55.85;100994.09;4931999;23;20049;-73
2023/05/12 00:27:49;;;;;;;7.60;5.40;;;;;;;13.92;55.91;100994.81;4970699;28;20043;-73
2023/05/12 00:30:17;;;;;;;6.55;4.47;;;;;;;13.92;55.79;100994.81;4984506;28;20498;-72
2023/05/12 00:32:46;;;;;;;7.32;5.18;;;;;;;13.89;55.64;100996.00;4971209;28;20038;-73
2023/05/12 00:35:14;;;;;;;7.10;5.28;;;;;;;13.89;55.96;100995.13;4965937;28;20110;-72
2023/05/12 00:37:44;;;;;;;7.75;5.15;;;;;;;13.91;56.11;100990.34;4955838;28;20631;-73
2023/05/12 00:40:12;;;;;;;7.05;5.03;;;;;;;13.88;56.11;100997.00;4984866;28;20050;-73
2023/05/12 00:42:40;;;;;;;9.15;6.25;;;;;;;13.87;55.66;100994.41;4974298;28;20638;-73
2023/05/12 00:45:09;;;;;;;9.32;5.80;;;;;;;13.87;56.01;100997.16;4931516;28;20051;-73
2023/05/12 00:47:37;;;;;;;9.93;6.55;;;;;;;13.84;55.71;100992.84;4962319;28;20507;-73
2023/05/12 00:50:07;;;;;;;9.35;6.57;;;;;;;13.84;55.64;100989.22;4946766;28;20110;-73
2023/05/12 00:52:35;;;;;;;10.18;6.82;;;;;;;13.81;55.67;100986.75;4947296;28;20150;-73
2023/05/12 00:55:06;;;;;;;9.95;6.63;;;;;;;13.82;56.15;100983.00;4930974;28;20051;-73
2023/05/12 00:57:33;;;;;;;8.65;6.32;;;;;;;13.78;56.04;100982.41;4950006;28;20039;-73
2023/05/12 01:00:01;;;;;;;9.13;6.32;;;;;;;13.77;56.16;100977.09;4950436;28;20523;-74
2023/05/12 01:02:30;;;;;;;7.60;5.47;;;;;;;13.77;55.89;100977.97;4966005;28;20395;-72
2023/05/12 01:04:58;;;;;;;8.38;5.97;;;;;;;13.76;56.21;100975.38;4956683;28;20110;-72
2023/05/12 01:07:27;;;;;;;8.73;6.00;;;;;;;13.76;55.99;100978.13;4949925;29;20055;-73
2023/05/12 01:09:56;;;;;;;8.80;6.15;;;;;;;13.74;55.64;100978.25;4965182;28;20075;-74
2023/05/12 01:12:27;;;;;;;8.57;6.78;;;;;;;13.74;55.63;100978.25;4952227;28;20063;-71
2023/05/12 01:14:57;;;;;;;9.00;6.65;;;;;;;13.72;55.91;100972.03;4953548;28;20109;-73
2023/05/12 01:17:31;;;;;;;8.30;5.88;;;;;;;13.72;55.95;100976.66;4950549;28;20047;-73
2023/05/12 01:20:01;;;;;;;7.63;5.78;;;;;;;13.70;56.14;100970.44;4948138;28;20043;-73
2023/05/12 01:22:31;;;;;;;8.63;5.75;;;;;;;13.68;56.19;100975.25;4950518;28;20101;-74
2023/05/12 01:25:01;;;;;;;7.75;5.40;;;;;;;13.66;55.76;100977.28;4964857;28;20442;-74
2023/05/12 01:27:33;;;;;;;6.80;5.03;;;;;;;13.65;56.08;100981.91;4950802;28;20043;-73
2023/05/12 01:30:04;;;;;;;8.68;5.82;;;;;;;13.63;56.04;100979.31;4959758;28;20063;-74
2023/05/12 01:32:34;;;;;;;;;;;;;;;13.34;57.06;100981.28;4962981;28;20039;-74
2023/05/12 01:35:04;;;;;;;6.40;4.00;;;;;;;13.55;55.88;100978.31;4960410;28;19937;-74
2023/05/12 01:37:33;;;;;;;6.47;4.22;;;;;;;13.56;56.07;100975.44;4943734;28;20047;-74
2023/05/12 01:40:04;;;;;;;6.35;4.22;;;;;;;13.56;55.85;100966.28;4968425;28;20181;-74
2023/05/12 01:42:34;;;;;;;6.53;4.35;;;;;;;13.55;56.34;100937.06;4950007;28;20047;-73
2023/05/12 01:45:02;;;;;;;5.30;3.75;;;;;;;13.51;56.20;100910.91;4959776;28;20050;-73
2023/05/12 01:47:30;;;;;;;4.38;2.80;;;;;;;13.48;56.30;100924.94;4957606;28;20110;-74
2023/05/12 01:50:09;;;;;;;3.85;2.28;;;;;;;13.45;56.34;100947.22;4945992;28;20097;-73
2023/05/12 01:52:38;;;;;;;3.75;2.45;;;;;;;13.42;56.43;100964.91;4948025;28;20039;-73
2023/05/12 01:55:12;;;;;;;4.07;2.40;;;;;;;13.40;56.52;100953.19;4964208;28;20075;-73
2023/05/12 01:57:47;;;;;;;3.60;2.13;;;;;;;13.40;56.18;100957.81;4961477;28;20114;-73
2023/05/12 02:00:16;;;;;;;3.42;2.22;;;;;;;13.38;56.32;100952.47;4960220;28;20130;-73
2023/05/12 02:02:46;;;;;;;3.28;1.85;;;;;;;13.36;56.24;100946.28;4964319;28;20566;-73
2023/05/12 02:05:14;;;;;;;3.78;2.00;;;;;;;13.35;56.53;100949.16;4948105;28;20059;-72
2023/05/12 02:07:45;;;;;;;3.33;1.90;;;;;;;13.33;56.67;100948.44;4954984;28;20458;-71
2023/05/12 02:10:13;;;;;;;3.08;1.75;;;;;;;13.33;56.77;100954.81;4983499;28;20608;-71
2023/05/12 02:12:41;;;;;;;3.45;1.88;;;;;;;13.33;56.77;100960.31;4967942;28;20046;-72
2023/05/12 02:15:11;;;;;;;3.45;1.80;;;;;;;13.35;56.66;100946.41;4960851;28;20127;-71
2023/05/12 02:17:43;;;;;;;2.88;1.75;;;;;;;13.32;56.97;100942.06;4963999;28;20047;-71
2023/05/12 02:20:13;;;;;;;2.90;1.65;;;;;;;13.34;56.65;100939.19;4947894;28;20051;-71
2023/05/12 02:22:42;;;;;;;3.10;2.00;;;;;;;13.34;56.51;100945.53;4948804;28;20573;-71
2023/05/12 02:25:10;;;;;;;2.67;1.75;;;;;;;13.34;56.46;100951.03;4948033;28;20471;-71
2023/05/12 02:27:38;;;;;;;2.13;1.33;;;;;;;13.33;56.61;100963.06;4950191;28;20075;-71
2023/05/12 02:30:08;;;;;;;3.13;1.60;;;;;;;13.36;56.68;100967.41;4944452;28;20139;-71
2023/05/12 02:32:37;;;;;;;2.30;1.45;;;;;;;13.36;56.68;100965.50;4955934;28;20130;-71
2023/05/12 02:35:08;;;;;;;2.47;1.40;;;;;;;13.37;56.91;100966.34;4944406;28;20103;-71
2023/05/12 02:37:37;;;;;;;2.20;1.48;;;;;;;13.36;56.85;100973.75;4954639;28;20039;-71
2023/05/12 02:40:07;;;;;;;3.13;1.27;;;;;;;13.37;56.73;100963.59;4963767;28;20059;-71
2023/05/12 02:42:37;;;;;;;2.67;1.30;;;;;;;13.37;56.77;100971.84;4951927;28;20138;-71
2023/05/12 02:45:06;;;;;;;2.00;1.35;;;;;;;13.38;56.17;100968.09;4944918;28;20472;-71
2023/05/12 02:47:34;;;;;;;1.17;0.98;;;;;;;13.38;56.45;100977.19;4956972;28;20085;-71
2023/05/12 02:50:04;;;;;;;2.25;1.30;;;;;;;13.39;56.14;100973.44;4982764;28;20054;-71
2023/05/12 02:52:32;;;;;;;1.58;1.05;;;;;;;13.38;56.53;100973.59;4967304;28;20039;-71
2023/05/12 02:55:00;;;;;;;1.55;1.10;;;;;;;13.38;56.50;100970.84;4967347;28;20075;-71
2023/05/12 02:57:32;;;;;;;1.92;0.90;;;;;;;13.39;56.27;100969.81;4964448;28;20050;-71
2023/05/12 03:00:03;;;;;;;2.47;1.00;;;;;;;13.39;56.54;100967.06;4943936;28;20060;-71
2023/05/12 03:02:32;;;;;;;1.80;1.02;;;;;;;13.39;56.20;100964.31;4964122;28;20459;-72
2023/05/12 03:05:00;;;;;;;2.15;1.20;;;;;;;13.39;56.60;100970.69;4956342;28;20058;-71
2023/05/12 03:07:30;;;;;;;2.03;1.15;;;;;;;13.40;56.15;100963.31;4951725;28;20101;-71
2023/05/12 03:09:58;;;;;;;2.05;1.00;;;;;;;13.38;56.21;100965.34;4963988;28;20073;-71
2023/05/12 03:12:28;;;;;;;1.48;0.90;;;;;;;13.38;56.10;100974.44;4953192;28;20051;-71
2023/05/12 03:14:56;;;;;;;1.60;1.00;;;;;;;13.37;55.88;100972.72;4965962;28;20055;-72
2023/05/12 03:17:24;;;;;;;0.95;0.80;;;;;;;13.36;55.79;100972.91;4952561;28;20066;-72
2023/05/12 03:19:52;;;;;;;1.58;1.00;;;;;;;13.35;56.18;100973.91;4952232;28;20043;-72
2023/05/12 03:22:20;;;;;;;2.08;1.30;;;;;;;13.34;56.43;100967.53;4966569;28;20407;-72
2023/05/12 03:24:49;;;;;;;2.08;1.15;;;;;;;13.36;56.13;100968.25;4967841;28;20052;-72
2023/05/12 03:27:17;;;;;;;1.67;1.27;;;;;;;13.35;56.68;100972.03;4953901;28;20426;-72
2023/05/12 03:29:45;;;;;;;2.88;1.50;;;;;;;13.34;56.71;100970.28;4951427;28;20044;-72
2023/05/12 03:32:13;;;;;;;3.10;1.77;;;;;;;13.34;56.69;100972.16;4960512;28;20039;-73
2023/05/12 03:34:41;;;;;;;4.15;2.05;;;;;;;13.34;56.66;100970.28;4941250;28;20082;-71
2023/05/12 03:37:09;;;;;;;3.30;2.20;;;;;;;13.33;56.21;100971.31;4956348;28;20066;-71
2023/05/12 03:39:37;;;;;;;3.40;2.17;;;;;;;13.34;56.77;100970.28;4953170;28;20043;-72
2023/05/12 03:42:07;;;;;;;3.92;2.35;;;;;;;13.36;56.67;100965.50;4952549;28;20134;-72
2023/05/12 03:44:35;;;;;;;4.18;2.42;;;;;;;13.35;56.85;100963.78;4948127;28;20069;-72
2023/05/12 03:47:03;;;;;;;4.70;2.80;;;;;;;13.36;56.82;100967.41;4946324;28;20043;-72
2023/05/12 03:49:31;;;;;;;4.20;2.70;;;;;;;13.36;56.62;100961.91;4951764;28;20102;-72
2023/05/12 03:51:59;;;;;;;4.60;3.08;;;;;;;13.36;56.98;100971.00;4966121;28;20098;-72
2023/05/12 03:54:27;;;;;;;5.70;3.50;;;;;;;13.36;56.94;100961.91;4951179;29;20526;-72
2023/05/12 03:56:54;;;;;;;5.75;3.53;;;;;;;13.36;56.43;100967.41;4951332;28;20054;-72
2023/05/12 03:59:24;;;;;;;5.63;3.65;;;;;;;13.38;56.93;100973.59;4948347;28;20044;-72
2023/05/12 04:01:53;;;;;;;5.85;3.80;;;;;;;13.35;56.58;100977.53;4948872;29;20058;-73
2023/05/12 04:04:21;;;;;;;6.32;4.10;;;;;;;13.35;56.80;100974.78;4961422;28;20110;-72
2023/05/12 04:06:48;;;;;;;5.85;4.20;;;;;;;13.35;57.00;100977.53;4954807;28;20071;-72
2023/05/12 04:09:17;;;;;;;7.03;4.55;;;;;;;13.35;57.12;100983.03;4950572;29;20598;-72
2023/05/12 04:11:45;;;;;;;6.20;4.30;;;;;;;13.35;57.10;100983.03;4967165;28;20079;-72
2023/05/12 04:14:13;;;;;;;7.00;4.93;;;;;;;13.36;56.79;100992.13;4960169;28;20507;-72
2023/05/12 04:16:42;;;;;;;6.78;4.63;;;;;;;13.36;56.95;100995.75;4951221;28;20058;-72
2023/05/12 04:19:10;;;;;;;7.95;4.68;;;;;;;13.36;56.79;100997.63;4952043;28;20086;-72
2023/05/12 04:21:38;;;;;;;8.82;5.03;;;;;;;13.35;56.83;100996.75;4949172;28;20555;-72
2023/05/12 04:24:06;;;;;;;7.75;5.20;;;;;;;13.36;56.72;100997.63;4950499;28;20462;-72
2023/05/12 04:26:36;;;;;;;6.72;4.43;;;;;;;13.34;56.62;100995.03;4957170;28;20105;-71
2023/05/12 04:29:04;;;;;;;6.90;4.70;;;;;;;13.35;57.28;100998.66;4978975;28;20146;-72
2023/05/12 04:31:32;;;;;;;6.55;4.43;;;;;;;13.34;56.80;101003.28;4949996;28;20074;-72
2023/05/12 04:34:03;;;;;;;6.63;4.45;;;;;;;13.36;57.11;101004.00;4966328;28;20050;-72
2023/05/12 04:36:32;;;;;;;5.45;3.65;;;;;;;13.34;57.02;101011.53;4972888;28;20043;-72
2023/05/12 04:39:01;;;;;;;5.40;3.42;;;;;;;13.34;56.39;101010.66;4974254;28;20135;-72
2023/05/12 04:41:29;;;;;;;5.22;3.42;;;;;;;13.32;56.92;101019.03;4970719;28;20050;-72
2023/05/12 04:43:57;;;;;;;5.10;3.38;;;;;;;13.32;56.88;101019.03;4958904;28;20051;-72
2023/05/12 04:46:27;;;;;;;4.97;3.10;;;;;;;13.32;56.64;101026.41;4965447;28;20350;-72
2023/05/12 04:48:55;;;;;;;5.53;3.03;;;;;;;13.31;56.72;101025.56;4964752;28;20046;-72
2023/05/12 04:51:25;;;;;;;5.68;3.10;;;;;;;13.31;56.27;101025.56;4966605;28;20470;-73
2023/05/12 04:53:53;;;;;;;3.85;2.50;;;;;;;13.30;56.51;101029.31;4964997;28;20056;-72
2023/05/12 04:56:22;;;;;;;3.83;2.53;;;;;;;13.30;56.13;101033.94;4965606;28;20051;-72
2023/05/12 04:58:50;;;;;;;3.65;2.42;;;;;;;13.29;56.60;101038.56;4966257;28;20043;-72
2023/05/12 05:01:18;;;;;;;4.70;2.10;;;;;;;13.30;56.03;101044.94;4964997;28;20039;-72
2023/05/12 05:03:47;;;;;;;3.20;2.10;;;;;;;13.28;56.24;101042.34;4955929;28;20047;-72
2023/05/12 05:06:15;;;;;;;3.40;2.13;;;;;;;13.28;56.00;101045.09;4964841;28;20048;-73
2023/05/12 05:08:44;;;;;;;3.30;1.98;;;;;;;13.30;56.02;101061.44;4966038;28;20420;-73
2023/05/12 05:11:12;;;;;;;2.90;1.67;;;;;;;13.27;56.24;101051.63;4965312;28;20054;-73
2023/05/12 05:13:46;;;;;;;3.45;1.90;;;;;;;13.27;55.83;101059.88;4961036;28;20050;-72
2023/05/12 05:16:14;;;;;;;2.92;2.03;;;;;;;13.27;56.27;101067.25;4971230;28;20463;-73
2023/05/12 05:18:45;;;;;;;2.75;1.83;;;;;;;13.28;55.51;101069.84;4966697;28;20047;-73
2023/05/12 05:21:13;;;;;;;2.85;1.70;;;;;;;13.28;55.75;101067.09;4965156;28;20073;-72
2023/05/12 05:23:46;;;;;;;2.45;1.60;;;;;;;13.31;56.20;101066.78;4952791;28;20047;-73
2023/05/12 05:26:14;;;;;;;;;;;;;;;13.01;56.49;101073.34;4969316;28;20122;-72
2023/05/12 05:28:43;;;;;;;2.85;1.67;;;;;;;13.24;56.12;101068.38;4956881;28;20131;-73
2023/05/12 05:31:15;;;;;;;2.38;1.50;;;;;;;13.30;55.69;101076.03;4965145;28;20052;-73
2023/05/12 05:33:43;;;;;;;4.25;1.70;;;;;;;13.29;55.23;101073.44;4941272;28;20059;-73
2023/05/12 05:36:11;;;;;;;3.65;1.75;;;;;;;13.29;55.68;101079.78;4951744;28;20050;-73
2023/05/12 05:38:39;;;;;;;2.78;1.70;;;;;;;13.30;55.07;101080.66;4961303;28;20051;-73
2023/05/12 05:41:08;;;;;;;2.95;1.92;;;;;;;13.31;55.56;101087.91;4951290;28;20054;-73
2023/05/12 05:43:36;;;;;;;3.70;2.20;;;;;;;13.28;55.26;101089.09;4972902;28;20067;-73
2023/05/12 05:46:05;;;;;;;2.75;1.80;;;;;;;13.27;55.10;101090.09;4958460;28;20055;-73
2023/05/12 05:48:35;;;;;;;3.25;2.00;;;;;;;13.28;54.96;101100.09;4953552;28;20066;-73
2023/05/12 05:51:03;;;;;;;3.88;2.10;;;;;;;13.28;55.34;101099.22;4950008;28;20066;-73
2023/05/12 05:53:32;;;;;;;4.05;2.05;;;;;;;13.27;54.98;101106.59;4968066;28;20134;-73
2023/05/12 05:56:00;;;;;;;3.13;2.03;;;;;;;13.27;55.01;101106.59;4964422;28;20055;-73
2023/05/12 06:01:24;;;;;;;4.25;2.28;;;;;;;13.28;55.06;101111.06;4944464;28;20050;-69
2023/05/12 06:03:53;;;;;;;4.18;2.30;;;;;;;13.27;55.20;101109.34;4944209;28;20039;-69
2023/05/12 06:06:21;;;;;;;3.97;1.92;;;;;;;13.29;54.96;101109.16;4944658;28;20126;-69
2023/05/12 06:08:50;;;;;;;3.20;2.00;;;;;;;13.29;55.40;101121.03;4945691;28;20043;-69
2023/05/12 06:11:17;;;;;;;3.05;2.05;;;;;;;13.29;55.46;101122.91;4942866;28;20054;-69
2023/05/12 06:13:45;;;;;;;3.20;2.13;;;;;;;13.31;55.37;101135.50;4946299;28;20051;-69
2023/05/12 06:16:13;;;;;;;3.35;2.25;;;;;;;13.33;55.28;101138.09;4944043;28;20058;-69
2023/05/12 06:18:42;;;;;;;3.67;2.40;;;;;;;13.34;54.90;101139.84;4947579;28;20051;-68
2023/05/12 06:21:10;;;;;;;3.83;2.38;;;;;;;13.34;55.33;101151.72;4945689;28;20047;-69
2023/05/12 06:23:38;;;;;;;3.10;2.17;;;;;;;13.35;54.86;101142.47;4944080;28;20454;-69
2023/05/12 06:26:06;;;;;;;3.45;2.30;;;;;;;13.36;55.28;101140.59;4945259;28;20067;-69
2023/05/12 06:28:34;;;;;;;3.85;2.38;;;;;;;13.37;54.65;101136.78;4944591;28;20047;-69
2023/05/12 06:31:02;;;;;;;4.38;2.63;;;;;;;13.39;54.80;101137.53;4944198;28;20051;-69
2023/05/12 06:33:30;;;;;;;4.10;2.70;;;;;;;13.39;54.48;101140.28;4943505;28;20391;-68
2023/05/12 06:35:59;;;;;;;3.20;2.20;;;;;;;13.41;54.42;101144.63;4944145;28;20299;-69
2023/05/12 06:38:27;;;;;;;3.60;2.60;;;;;;;13.41;54.91;101149.25;4945333;28;20039;-69
2023/05/12 06:40:54;;;;;;;3.72;2.30;;;;;;;13.41;54.89;101143.75;4944147;28;20490;-69
2023/05/12 06:43:23;;;;;;;3.58;2.50;;;;;;;13.42;55.07;101151.00;4961237;28;20047;-68
2023/05/12 06:45:55;;;;;;;5.50;2.50;;;;;;;13.41;55.12;101150.13;4946918;28;20470;-69
2023/05/12 06:48:23;;;;;;;3.70;2.78;;;;;;;13.43;54.30;101152.72;4950243;28;20051;-69
2023/05/12 06:50:55;;;;;;;3.70;2.45;;;;;;;13.42;54.32;101164.72;4947926;28;20102;-69
2023/05/12 06:53:29;;;;;;;;;;;;;;;13.16;55.32;101154.31;4950998;28;20039;-70
2023/05/12 06:55:57;;;;;;;4.32;2.47;;;;;;;13.41;54.60;101163.88;4948312;28;20271;-69
2023/05/12 06:58:25;;;;;;;5.10;2.85;;;;;;;13.45;54.74;101168.03;4948156;28;20039;-69
2023/05/12 07:00:53;;;;;;;3.97;2.50;;;;;;;13.47;54.50;101174.28;4948232;28;20075;-70
2023/05/12 07:03:21;;;;;;;4.00;2.80;;;;;;;13.48;54.42;101173.25;4953155;28;20510;-71
2023/05/12 07:05:49;;;;;;;4.00;2.72;;;;;;;13.49;54.76;101168.63;4963869;28;20059;-71
2023/05/12 07:08:17;;;;;;;3.60;2.50;;;;;;;13.51;54.27;101183.09;4954168;28;20101;-68
2023/05/12 07:10:46;;;;;;;4.07;2.50;;;;;;;13.53;54.39;101179.19;4947731;28;20130;-69
2023/05/12 07:13:14;;;;;;;4.05;2.55;;;;;;;13.55;54.66;101179.03;4949275;28;20069;-69
2023/05/12 07:15:42;;;;;;;4.03;2.90;;;;;;;13.57;54.22;101177.06;4947160;28;20378;-69
2023/05/12 07:18:10;;;;;;;4.95;2.53;;;;;;;13.58;54.29;101176.03;4949380;28;20074;-69
2023/05/12 07:20:38;;;;;;;3.67;2.70;;;;;;;13.61;54.33;101181.25;4960721;28;20069;-69
2023/05/12 07:23:05;;;;;;;3.42;2.45;;;;;;;13.63;54.39;101185.56;4948170;28;20061;-69
2023/05/12 07:25:33;;;;;;;4.85;2.35;;;;;;;13.65;54.46;101185.44;4952924;28;20046;-69
2023/05/12 07:28:03;;;;;;;3.72;2.63;;;;;;;13.68;54.19;101185.16;4947887;28;20051;-70
2023/05/12 07:30:31;;;;;;;3.95;2.63;;;;;;;13.69;53.80;101188.78;4945399;28;20083;-69
2023/05/12 07:33:00;;;;;;;4.25;2.80;;;;;;;13.71;54.21;101189.47;4949847;28;20054;-70
2023/05/12 07:35:28;;;;;;;3.38;2.30;;;;;;;13.73;53.79;101192.94;4958857;28;20058;-70
2023/05/12 07:37:55;;;;;;;3.85;2.60;;;;;;;13.75;53.97;101190.94;4951093;28;20111;-70
2023/05/12 07:40:23;;;;;;;4.13;2.33;;;;;;;13.77;54.29;101188.91;4949793;28;20049;-70
2023/05/12 07:42:51;;;;;;;4.70;2.30;;;;;;;13.79;54.20;101192.34;4953440;28;20219;-69
2023/05/12 07:45:23;;;;;;;3.00;2.38;;;;;;;13.85;54.18;101194.53;4945067;28;20258;-70
2023/05/12 07:47:51;;;;;;;3.97;2.72;;;;;;;13.83;54.20;101200.19;4964721;28;20724;-70
2023/05/12 07:50:20;;;;;;;3.42;2.10;;;;;;;13.88;53.64;101202.47;4945224;28;20079;-70
2023/05/12 07:52:49;;;;;;;2.80;2.05;;;;;;;13.89;53.88;101207.84;4957152;28;20035;-70
2023/05/12 07:55:18;;;;;;;3.75;2.72;;;;;;;13.93;53.88;101202.94;4947266;28;20073;-70
2023/05/12 07:57:46;;;;;;;4.20;2.40;;;;;;;13.94;53.47;101201.91;4950894;28;20395;-70
2023/05/12 08:00:16;;;;;;;3.00;2.20;;;;;;;13.97;53.36;101205.22;4944488;28;20047;-70
2023/05/12 08:02:45;;;;;;;3.30;2.10;;;;;;;14.00;53.61;101204.06;4954844;28;20698;-70
2023/05/12 08:05:14;;;;;;;3.95;2.22;;;;;;;13.99;53.00;101211.44;4951471;28;20388;-70
2023/05/12 08:07:42;;;;;;;3.83;2.30;;;;;;;14.02;53.58;101208.38;4957823;28;20528;-70
2023/05/12 08:10:11;;;;;;;3.38;1.83;;;;;;;14.03;53.30;101209.25;4943870;28;20047;-69
2023/05/12 08:12:40;;;;;;;3.40;2.22;;;;;;;14.07;53.09;101215.34;4949329;28;20047;-70
2023/05/12 08:15:08;;;;;;;3.25;2.17;;;;;;;14.07;53.25;101223.59;4946887;28;20418;-70
2023/05/12 08:17:36;;;;;;;2.85;1.85;;;;;;;14.08;53.55;101217.06;4948050;28;20486;-70
2023/05/12 08:20:07;;;;;;;3.95;1.90;;;;;;;14.11;53.09;101223.13;4945245;28;20204;-70
2023/05/12 08:22:35;;;;;;;2.90;1.80;;;;;;;14.11;53.56;101230.53;4946270;28;20039;-70
2023/05/12 08:25:04;;;;;;;3.20;1.90;;;;;;;14.14;53.62;101227.47;4946937;28;20053;-70
2023/05/12 08:27:32;;;;;;;2.33;1.67;;;;;;;14.15;53.57;101226.47;4946093;28;20686;-69
2023/05/12 08:30:00;;;;;;;3.38;2.20;;;;;;;14.16;53.06;101226.34;4946895;28;21665;-70
2023/05/12 08:32:28;;;;;;;3.35;2.40;;;;;;;14.18;53.41;101237.19;4951096;28;20040;-70
2023/05/12 08:34:56;;;;;;;3.03;2.00;;;;;;;14.19;52.99;101237.03;4948882;28;20167;-70
2023/05/12 08:37:26;;;;;;;3.20;2.00;;;;;;;14.22;53.26;101238.63;4948760;28;20035;-70
2023/05/12 08:39:54;;;;;;;4.05;2.20;;;;;;;14.21;53.05;101243.25;4945550;28;20055;-70
2023/05/12 08:42:31;;;;;;;2.95;1.95;;;;;;;14.25;52.30;101238.34;4948554;28;20510;-70
2023/05/12 08:44:59;;;;;;;3.33;1.98;;;;;;;14.23;52.79;101246.72;4945034;28;20098;-70
2023/05/12 08:47:28;;;;;;;3.67;2.25;;;;;;;14.26;52.85;101248.34;4945218;28;20043;-70
2023/05/12 08:49:59;;;;;;;3.35;2.00;;;;;;;14.26;52.29;101251.97;4948250;28;20050;-70
2023/05/12 08:52:31;;;;;;;3.25;1.90;;;;;;;14.28;52.46;101254.53;4948109;28;20114;-70
2023/05/12 08:54:59;;;;;;;3.13;1.75;;;;;;;14.25;53.18;101247.47;4947661;28;20122;-70
2023/05/12 08:57:30;;;;;;;3.22;2.10;;;;;;;14.29;52.57;101253.53;4949754;28;20043;-69
2023/05/12 08:59:59;;;;;;;2.92;2.22;;;;;;;14.32;52.87;101251.34;4947386;28;20055;-70
2023/05/12 09:02:28;;;;;;;3.30;2.10;;;;;;;14.36;52.39;101260.16;4950792;28;20043;-70
2023/05/12 09:05:15;;;;;;;4.00;1.80;;;;;;;14.35;53.03;101248.28;4949356;28;20459;-71
2023/05/12 09:07:45;;;;;;;3.50;1.98;;;;;;;14.40;52.71;101261.63;4948571;28;20052;-71
2023/05/12 09:10:15;;;;;;;3.17;2.05;;;;;;;14.42;52.65;101259.59;4944176;28;20051;-70
2023/05/12 09:13:03;;;;;;;3.20;1.98;;;;;;;14.46;52.32;101257.38;4945937;28;20035;-69
2023/05/12 09:15:35;;;;;;;3.28;2.03;;;;;;;14.50;52.02;101261.63;4945858;28;20506;-71
2023/05/12 09:18:03;;;;;;;3.17;2.10;;;;;;;14.49;52.08;101268.16;4941380;28;20067;-70
2023/05/12 09:20:31;;;;;;;3.05;2.05;;;;;;;14.54;51.89;101263.03;4945528;28;20353;-72
2023/05/12 09:23:12;;;;;;;3.03;2.15;;;;;;;14.60;50.99;101265.22;4952851;28;20135;-72
2023/05/12 09:25:40;;;;;;;3.33;1.95;;;;;;;14.60;51.67;101267.97;4945688;28;20071;-71
2023/05/12 09:28:08;;;;;;;3.80;2.00;;;;;;;14.64;51.42;101267.50;4943482;28;20055;-72
2023/05/12 09:30:37;;;;;;;2.88;1.95;;;;;;;14.67;51.83;101266.34;4955458;28;20199;-72
2023/05/12 09:33:06;;;;;;;3.53;2.30;;;;;;;14.72;51.49;101270.38;4946707;28;20043;-72
2023/05/12 09:35:41;;;;;;;3.35;2.38;;;;;;;14.80;50.81;101269.59;4944166;28;20051;-73
2023/05/12 09:38:12;;;;;;;3.30;2.33;;;;;;;14.80;50.74;101280.63;4943606;28;20051;-72
2023/05/12 09:40:41;;;;;;;2.78;2.17;;;;;;;14.83;51.00;101276.72;4944387;28;20059;-72
2023/05/12 09:43:10;;;;;;;3.10;2.00;;;;;;;14.88;51.04;101268.84;4947229;28;20410;-71
2023/05/12 09:45:45;;;;;;;3.42;2.25;;;;;;;14.92;50.70;101284.06;4946408;28;20059;-71
2023/05/12 09:48:13;;;;;;;3.08;2.10;;;;;;;14.96;50.76;101275.34;4949645;28;20102;-71
2023/05/12 09:50:46;;;;;;;3.25;2.03;;;;;;;15.02;49.76;101277.47;4948003;28;20050;-71
2023/05/12 09:53:17;;;;;;;2.95;1.92;;;;;;;15.06;50.50;101276.16;4948085;28;20039;-73
2023/05/12 09:55:47;;;;;;;3.40;2.03;;;;;;;15.12;50.53;101277.41;4944361;28;20510;-70
2023/05/12 09:58:17;;;;;;;2.85;2.10;;;;;;;15.19;50.25;101269.38;4945932;28;20038;-73
2023/05/12 10:00:46;;;;;;;3.15;2.22;;;;;;;15.24;50.67;101261.53;4944329;28;20057;-70
2023/05/12 10:03:20;;;;;;;2.90;1.90;;;;;;;15.31;50.68;101260.75;4945172;28;20023;-70
2023/05/12 10:05:50;;;;;;;2.50;2.05;;;;;;;15.40;51.22;101262.63;4944148;28;20822;-71
2023/05/12 10:08:25;;;;;;;3.30;2.15;;;;;;;15.54;50.19;101268.63;4946324;28;20051;-71
2023/05/12 10:10:56;;;;;;;2.53;1.92;;;;;;;15.64;50.70;101262.00;4953135;28;20146;-70
2023/05/12 10:13:25;;;;;;;3.20;2.05;;;;;;;15.78;50.34;101260.56;4945073;28;20050;-72
2023/05/12 10:15:55;;;;;;;2.83;1.90;;;;;;;15.91;49.85;101266.56;4944694;28;20055;-70
2023/05/12 10:18:24;;;;;;;3.60;1.95;;;;;;;16.00;50.08;101260.06;4957548;28;20528;-71
2023/05/12 10:20:53;;;;;;;3.80;2.05;;;;;;;16.12;49.94;101257.94;4949352;28;20137;-71
2023/05/12 10:23:23;;;;;;;3.20;2.08;;;;;;;16.24;49.36;101256.69;4947865;28;20047;-70
2023/05/12 10:25:53;;;;;;;2.97;1.75;;;;;;;16.34;49.09;101256.56;4944934;28;20047;-69
2023/05/12 10:28:21;;;;;;;3.15;2.30;;;;;;;16.40;48.64;101255.91;4949437;28;20054;-70
2023/05/12 10:30:50;;;;;;;3.20;2.00;;;;;;;16.51;48.64;101255.63;4944473;28;20142;-70
2023/05/12 10:33:18;;;;;;;2.95;1.90;;;;;;;16.57;48.21;101258.63;4941757;28;20039;-70
2023/05/12 10:35:46;;;;;;;3.40;2.00;;;;;;;16.64;48.04;101256.06;4946274;28;20054;-70
2023/05/12 10:38:16;;;;;;;3.10;2.15;;;;;;;16.70;47.73;101257.28;4952279;28;20097;-70
2023/05/12 10:40:54;;;;;;;3.20;2.10;;;;;;;16.80;45.75;101258.03;4945907;28;20430;-70
2023/05/12 10:43:23;;;;;;;2.88;2.00;;;;;;;16.85;46.97;101266.69;4948043;28;20113;-70
2023/05/12 10:46:07;;;;;;;2.65;1.83;;;;;;;16.90;44.51;101265.19;4947385;28;20462;-70
2023/05/12 10:48:37;;;;;;;2.95;1.77;;;;;;;16.95;46.05;101262.78;4940964;28;20047;-58
2023/05/12 10:51:08;;;;;;;3.28;2.13;;;;;;;17.01;45.20;101267.66;4939639;28;20146;-60
2023/05/12 10:53:39;;;;;;;4.00;2.20;;;;;;;17.04;44.63;101269.25;4942245;28;20035;-60
2023/05/12 10:56:22;;;;;;;6.55;2.17;;;;;;;17.06;41.18;101269.94;4939288;28;20131;-57
2023/05/12 10:59:12;;;;;;;3.88;2.00;;;;;;;17.10;42.40;101249.22;4946712;28;20503;-60
2023/05/12 11:01:43;;;;;;;2.67;1.92;;;;;;;17.14;44.80;101249.75;4943032;28;21595;-61
2023/05/12 11:04:13;;;;;;;4.43;2.40;;;;;;;17.19;44.73;101248.22;4954197;28;20118;-58
2023/05/12 11:06:44;;;;;;;3.08;1.90;;;;;;;17.23;44.56;101249.63;4939801;28;20119;-59
2023/05/12 11:09:14;;;;;;;3.40;2.30;;;;;;;17.25;44.61;101247.53;4943164;28;20082;-57
2023/05/12 11:11:46;;;;;;;2.80;1.85;;;;;;;17.31;43.90;101249.63;4945033;28;20138;-56
2023/05/12 11:14:15;;;;;;;3.15;2.33;;;;;;;17.32;43.92;101251.34;4944208;28;20042;-60
2023/05/12 11:16:43;;;;;;;3.88;2.20;;;;;;;17.35;43.70;101261.22;4943906;28;20381;-61
2023/05/12 11:19:11;;;;;;;3.33;2.25;;;;;;;17.37;43.56;101262.78;4945662;28;20047;-60
2023/05/12 11:21:39;;;;;;;3.10;2.22;;;;;;;17.38;43.59;101269.19;4944749;28;20527;-59
2023/05/12 11:24:09;;;;;;;3.58;2.30;;;;;;;17.39;44.18;101268.16;4947460;28;20038;-60
2023/05/12 11:26:40;;;;;;;2.90;2.10;;;;;;;17.38;44.34;101267.28;4942081;28;20055;-60
2023/05/12 11:29:10;;;;;;;3.50;2.28;;;;;;;17.41;44.60;101268.81;4943563;28;20082;-59
2023/05/12 11:31:38;;;;;;;3.47;2.40;;;;;;;17.40;44.68;101265.19;4945143;28;20404;-59
2023/05/12 11:34:08;;;;;;;3.33;2.25;;;;;;;17.40;44.67;101276.25;4947587;28;20039;-60
2023/05/12 11:36:42;;;;;;;5.45;2.17;;;;;;;17.41;44.12;101274.38;4946305;28;20086;-60
2023/05/12 11:39:13;;;;;;;4.68;2.33;;;;;;;17.43;43.78;101266.75;4948467;28;20126;-61
2023/05/12 11:41:41;;;;;;;3.67;2.22;;;;;;;17.40;44.49;101267.97;4945378;28;20091;-60
2023/05/12 11:44:15;;;;;;;3.17;2.30;;;;;;;17.45;42.69;101259.16;4947518;28;20036;-60
2023/05/12 11:46:56;;;;;;;3.70;2.40;;;;;;;17.49;42.40;101259.69;4947196;28;20039;-59
2023/05/12 11:49:25;;;;;;;4.38;2.30;;;;;;;17.50;44.34;101265.06;4946837;28;20074;-59
2023/05/12 11:51:54;;;;;;;3.88;2.70;;;;;;;17.56;44.31;101260.75;4947852;28;20597;-60